Time,TemperatureF,DewpointF,PressureIn,WindDirection,WindDirectionDegrees,WindSpeedMPH,WindSpeedGustMPH,Humidity,HourlyPrecipIn,Conditions,Clouds,dailyrainin,SoftwareType,DateUTC
2013-02-20 00:01:00,14.0,8.0,30.23,NNW,346,7.0,12.0,76,0.00,,,0.01,,2013-02-20 06:01:00,
2013-02-20 00:11:00,14.0,8.0,30.23,NNW,346,7.0,12.0,76,0.00,,,0.01,,2013-02-20 06:11:00,
2013-02-20 00:21:00,13.0,7.0,30.24,NNE,21,6.0,13.0,77,0.00,,,0.01,,2013-02-20 06:21:00,
2013-02-20 00:32:00,13.0,7.0,30.24,NW,325,5.0,9.0,78,0.00,,,0.00,,2013-02-20 06:32:00,
2013-02-20 00:42:00,13.0,7.0,30.24,NW,325,5.0,9.0,78,0.00,,,0.00,,2013-02-20 06:42:00,
2013-02-20 00:51:00,13.0,7.0,30.25,NNE,22,5.0,13.0,77,0.00,,,0.00,,2013-02-20 06:51:00,
2013-02-20 01:01:00,13.0,7.0,30.25,NNE,22,5.0,13.0,77,0.00,,,0.00,,2013-02-20 07:01:00,
2013-02-20 01:11:00,13.0,7.0,30.25,NNE,22,5.0,13.0,77,0.00,,,0.00,,2013-02-20 07:11:00,
2013-02-20 01:21:00,12.0,6.0,30.26,North,351,5.0,12.0,78,0.00,,,0.00,,2013-02-20 07:21:00,
2013-02-20 01:31:00,12.0,6.0,30.27,NNW,342,6.0,14.0,77,0.00,,,0.00,,2013-02-20 07:31:00,
2013-02-20 01:42:00,12.0,6.0,30.27,NNW,342,6.0,14.0,77,0.00,,,0.00,,2013-02-20 07:42:00,
2013-02-20 01:51:00,12.0,6.0,30.27,NNW,342,6.0,14.0,77,0.00,,,0.00,,2013-02-20 07:51:00,
2013-02-20 02:05:00,11.0,5.0,30.27,North,355,4.0,9.0,77,0.00,,,0.00,,2013-02-20 08:05:00,
2013-02-20 02:11:00,11.0,5.0,30.27,North,355,4.0,9.0,77,0.00,,,0.00,,2013-02-20 08:11:00,
2013-02-20 02:21:00,11.0,6.0,30.27,NNW,340,5.0,10.0,78,0.00,,,0.00,,2013-02-20 08:21:00,
2013-02-20 02:31:00,11.0,5.0,30.28,NW,325,6.0,11.0,77,0.00,,,0.00,,2013-02-20 08:31:00,
2013-02-20 02:41:00,11.0,5.0,30.28,NW,325,6.0,11.0,77,0.00,,,0.00,,2013-02-20 08:41:00,
2013-02-20 02:52:00,11.0,5.0,30.29,NW,309,4.0,12.0,77,0.00,,,0.00,,2013-02-20 08:52:00,
2013-02-20 03:01:00,10.0,5.0,30.29,NNW,341,4.0,9.0,78,0.00,,,0.00,,2013-02-20 09:01:00,
2013-02-20 03:11:00,10.0,5.0,30.29,NNW,341,4.0,9.0,78,0.00,,,0.00,,2013-02-20 09:11:00,
2013-02-20 03:21:00,10.0,4.0,30.29,NNE,15,7.0,12.0,77,0.00,,,0.00,,2013-02-20 09:21:00,
2013-02-20 03:31:00,10.0,4.0,30.29,North,360,5.0,11.0,77,0.00,,,0.00,,2013-02-20 09:31:00,
2013-02-20 03:42:00,10.0,4.0,30.29,North,360,5.0,11.0,77,0.00,,,0.00,,2013-02-20 09:42:00,
2013-02-20 03:51:00,10.0,4.0,30.30,North,360,5.0,13.0,77,0.00,,,0.00,,2013-02-20 09:51:00,
2013-02-20 04:01:00,10.0,4.0,30.30,NNE,14,6.0,16.0,77,0.00,,,0.00,,2013-02-20 10:01:00,
2013-02-20 04:12:00,10.0,4.0,30.30,NNE,14,6.0,16.0,77,0.00,,,0.00,,2013-02-20 10:12:00,
2013-02-20 04:22:00,10.0,5.0,30.30,NW,319,5.0,13.0,78,0.00,,,0.00,,2013-02-20 10:22:00,
2013-02-20 04:32:00,9.0,3.0,30.31,NNW,341,6.0,14.0,77,0.00,,,0.00,,2013-02-20 10:32:00,
2013-02-20 04:42:00,9.0,3.0,30.31,NNW,341,6.0,14.0,77,0.00,,,0.00,,2013-02-20 10:42:00,
2013-02-20 04:51:00,9.0,3.0,30.32,NNW,346,4.0,11.0,77,0.00,,,0.00,,2013-02-20 10:51:00,
2013-02-20 05:02:00,9.0,3.0,30.31,North,355,8.0,14.0,77,0.00,,,0.00,,2013-02-20 11:02:00,
2013-02-20 05:11:00,9.0,3.0,30.32,North,5,5.0,12.0,77,0.00,,,0.00,,2013-02-20 11:11:00,
2013-02-20 05:21:00,9.0,3.0,30.32,North,5,5.0,12.0,77,0.00,,,0.00,,2013-02-20 11:21:00,
2013-02-20 05:32:00,9.0,3.0,30.32,North,5,5.0,12.0,77,0.00,,,0.00,,2013-02-20 11:32:00,
2013-02-20 05:42:00,9.0,3.0,30.32,North,5,5.0,12.0,77,0.00,,,0.00,,2013-02-20 11:42:00,
2013-02-20 05:52:00,9.0,4.0,30.32,NNW,333,6.0,13.0,78,0.00,,,0.00,,2013-02-20 11:52:00,
2013-02-20 06:02:00,9.0,4.0,30.32,North,351,4.0,11.0,78,0.00,,,0.00,,2013-02-20 12:02:00,
2013-02-20 06:12:00,9.0,4.0,30.32,North,351,4.0,11.0,78,0.00,,,0.00,,2013-02-20 12:12:00,
2013-02-20 06:21:00,9.0,4.0,30.32,NNW,344,5.0,10.0,78,0.00,,,0.00,,2013-02-20 12:21:00,
2013-02-20 06:32:00,9.0,4.0,30.32,North,355,4.0,10.0,78,0.00,,,0.00,,2013-02-20 12:32:00,
2013-02-20 06:42:00,9.0,4.0,30.32,North,355,4.0,10.0,78,0.00,,,0.00,,2013-02-20 12:42:00,
2013-02-20 06:52:00,9.0,4.0,30.33,NNW,348,3.0,8.0,79,0.00,,,0.00,,2013-02-20 12:52:00,
2013-02-20 07:01:00,8.0,3.0,30.34,North,355,3.0,7.0,79,0.00,,,0.00,,2013-02-20 13:01:00,
2013-02-20 07:11:00,8.0,3.0,30.34,North,355,3.0,7.0,79,0.00,,,0.00,,2013-02-20 13:11:00,
2013-02-20 07:22:00,9.0,4.0,30.34,North,360,4.0,9.0,80,0.00,,,0.00,,2013-02-20 13:22:00,
2013-02-20 07:31:00,9.0,4.0,30.35,NNW,342,4.0,9.0,79,0.00,,,0.00,,2013-02-20 13:31:00,
2013-02-20 07:42:00,9.0,4.0,30.35,NNW,342,4.0,9.0,79,0.00,,,0.00,,2013-02-20 13:42:00,
2013-02-20 07:51:00,9.0,4.0,30.36,NNW,335,3.0,8.0,79,0.00,,,0.00,,2013-02-20 13:51:00,
2013-02-20 08:01:00,9.0,4.0,30.36,NNW,335,3.0,8.0,79,0.00,,,0.00,,2013-02-20 14:01:00,
2013-02-20 08:11:00,9.0,4.0,30.36,NNW,335,3.0,8.0,79,0.00,,,0.00,,2013-02-20 14:11:00,
2013-02-20 08:21:00,10.0,5.0,30.37,NW,319,4.0,9.0,78,0.00,,,0.00,,2013-02-20 14:21:00,
2013-02-20 08:32:00,11.0,5.0,30.36,NE,38,4.0,10.0,77,0.00,,,0.00,,2013-02-20 14:32:00,
2013-02-20 08:42:00,11.0,5.0,30.36,NE,38,4.0,10.0,77,0.00,,,0.00,,2013-02-20 14:42:00,
2013-02-20 08:52:00,12.0,6.0,30.37,NW,321,3.0,8.0,76,0.00,,,0.00,,2013-02-20 14:52:00,
2013-02-20 09:01:00,12.0,6.0,30.37,NNE,13,4.0,7.0,76,0.00,,,0.00,,2013-02-20 15:01:00,
2013-02-20 09:11:00,12.0,6.0,30.37,NNE,13,4.0,7.0,76,0.00,,,0.00,,2013-02-20 15:11:00,
2013-02-20 09:22:00,13.0,7.0,30.37,NNE,31,2.0,10.0,77,0.00,,,0.00,,2013-02-20 15:22:00,
2013-02-20 09:32:00,13.0,7.0,30.37,NW,321,4.0,10.0,75,0.00,,,0.00,,2013-02-20 15:32:00,
2013-02-20 09:42:00,13.0,7.0,30.37,NW,321,4.0,10.0,75,0.00,,,0.00,,2013-02-20 15:42:00,
2013-02-20 09:52:00,14.0,8.0,30.37,NNW,328,5.0,10.0,75,0.00,,,0.00,,2013-02-20 15:52:00,
2013-02-20 10:01:00,14.0,7.0,30.37,NNW,342,6.0,13.0,74,0.00,,,0.00,,2013-02-20 16:01:00,
2013-02-20 10:12:00,14.0,7.0,30.37,NNW,342,6.0,13.0,74,0.00,,,0.00,,2013-02-20 16:12:00,
2013-02-20 10:21:00,15.0,9.0,30.38,NNW,342,4.0,11.0,76,0.00,,,0.00,,2013-02-20 16:21:00,
2013-02-20 10:32:00,16.0,9.0,30.38,North,355,3.0,10.0,75,0.00,,,0.00,,2013-02-20 16:32:00,
2013-02-20 10:42:00,16.0,9.0,30.38,North,355,3.0,10.0,75,0.00,,,0.00,,2013-02-20 16:42:00,
2013-02-20 10:52:00,17.0,10.0,30.38,NW,317,6.0,12.0,72,0.00,,,0.00,,2013-02-20 16:52:00,
2013-02-20 11:01:00,17.0,9.0,30.38,North,349,5.0,11.0,71,0.00,,,0.00,,2013-02-20 17:01:00,
2013-02-20 11:11:00,18.0,11.0,30.38,North,5,5.0,12.0,72,0.00,,,0.00,,2013-02-20 17:11:00,
2013-02-20 11:21:00,18.0,11.0,30.38,North,5,5.0,12.0,72,0.00,,,0.00,,2013-02-20 17:21:00,
2013-02-20 11:32:00,19.0,12.0,30.38,NNW,337,3.0,11.0,73,0.00,,,0.00,,2013-02-20 17:32:00,
2013-02-20 11:42:00,19.0,12.0,30.38,NNW,337,3.0,11.0,73,0.00,,,0.00,,2013-02-20 17:42:00,
2013-02-20 11:52:00,20.0,12.0,30.38,NW,323,4.0,13.0,71,0.00,,,0.00,,2013-02-20 17:52:00,
2013-02-20 12:02:00,20.0,12.0,30.38,NNW,337,4.0,9.0,71,0.00,,,0.00,,2013-02-20 18:02:00,
2013-02-20 12:11:00,20.0,12.0,30.38,NNW,337,4.0,9.0,71,0.00,,,0.00,,2013-02-20 18:11:00,
2013-02-20 12:21:00,20.0,12.0,30.38,NNW,337,4.0,9.0,71,0.00,,,0.00,,2013-02-20 18:21:00,
2013-02-20 12:32:00,22.0,14.0,30.38,North,11,4.0,8.0,70,0.00,,,0.00,,2013-02-20 18:32:00,
2013-02-20 12:42:00,22.0,14.0,30.38,North,11,4.0,8.0,70,0.00,,,0.00,,2013-02-20 18:42:00,
2013-02-20 12:52:00,23.0,16.0,30.38,WNW,290,2.0,9.0,73,0.00,,,0.00,,2013-02-20 18:52:00,
2013-02-20 13:01:00,23.0,15.0,30.39,North,355,3.0,11.0,70,0.00,,,0.00,,2013-02-20 19:01:00,
2013-02-20 13:11:00,23.0,15.0,30.39,North,355,3.0,11.0,70,0.00,,,0.00,,2013-02-20 19:11:00,
2013-02-20 13:21:00,24.0,15.0,30.39,NW,312,4.0,10.0,68,0.00,,,0.00,,2013-02-20 19:21:00,
2013-02-20 13:31:00,24.0,15.0,30.39,NW,312,4.0,10.0,68,0.00,,,0.00,,2013-02-20 19:31:00,
2013-02-20 13:41:00,24.0,15.0,30.39,NW,312,4.0,10.0,68,0.00,,,0.00,,2013-02-20 19:41:00,
2013-02-20 13:52:00,25.0,16.0,30.38,NE,49,6.0,13.0,67,0.00,,,0.00,,2013-02-20 19:52:00,
2013-02-20 14:01:00,26.0,18.0,30.37,NNW,345,5.0,11.0,70,0.00,,,0.00,,2013-02-20 20:01:00,
2013-02-20 14:11:00,25.0,17.0,30.36,West,269,6.0,11.0,70,0.00,,,0.00,,2013-02-20 20:11:00,
2013-02-20 14:21:00,25.0,17.0,30.36,West,269,6.0,11.0,70,0.00,,,0.00,,2013-02-20 20:21:00,
2013-02-20 14:31:00,25.0,16.0,30.36,North,355,6.0,13.0,69,0.00,,,0.00,,2013-02-20 20:31:00,
2013-02-20 14:41:00,25.0,16.0,30.36,North,355,6.0,13.0,69,0.00,,,0.00,,2013-02-20 20:41:00,
2013-02-20 14:51:00,25.0,16.0,30.36,NNW,329,8.0,13.0,69,0.00,,,0.00,,2013-02-20 20:51:00,
2013-02-20 15:01:00,25.0,17.0,30.36,NNW,327,7.0,12.0,70,0.00,,,0.00,,2013-02-20 21:01:00,
2013-02-20 15:11:00,25.0,17.0,30.36,NNW,327,7.0,12.0,70,0.00,,,0.00,,2013-02-20 21:11:00,
2013-02-20 15:21:00,25.0,17.0,30.36,North,355,3.0,13.0,70,0.00,,,0.00,,2013-02-20 21:21:00,
2013-02-20 15:31:00,25.0,17.0,30.35,NNE,14,4.0,10.0,71,0.00,,,0.00,,2013-02-20 21:31:00,
2013-02-20 15:42:00,25.0,17.0,30.35,NNE,14,4.0,10.0,71,0.00,,,0.00,,2013-02-20 21:42:00,
2013-02-20 15:51:00,25.0,17.0,30.35,NNW,342,7.0,11.0,70,0.00,,,0.00,,2013-02-20 21:51:00,
2013-02-20 16:01:00,25.0,17.0,30.35,North,350,4.0,10.0,72,0.00,,,0.00,,2013-02-20 22:01:00,
2013-02-20 16:11:00,25.0,17.0,30.35,North,350,4.0,10.0,72,0.00,,,0.00,,2013-02-20 22:11:00,
2013-02-20 16:21:00,25.0,17.0,30.35,NNE,29,4.0,10.0,72,0.00,,,0.00,,2013-02-20 22:21:00,
2013-02-20 16:31:00,25.0,17.0,30.35,NNW,343,4.0,10.0,71,0.00,,,0.00,,2013-02-20 22:31:00,
2013-02-20 16:42:00,25.0,17.0,30.35,NNW,343,4.0,10.0,71,0.00,,,0.00,,2013-02-20 22:42:00,
2013-02-20 16:51:00,25.0,17.0,30.35,North,355,5.0,9.0,71,0.00,,,0.00,,2013-02-20 22:51:00,
2013-02-20 17:01:00,24.0,16.0,30.35,North,360,4.0,8.0,70,0.00,,,0.00,,2013-02-20 23:01:00,
2013-02-20 17:12:00,24.0,16.0,30.35,North,360,4.0,8.0,70,0.00,,,0.00,,2013-02-20 23:12:00,
2013-02-20 17:22:00,24.0,16.0,30.36,NNW,348,3.0,7.0,72,0.00,,,0.00,,2013-02-20 23:22:00,
2013-02-20 17:32:00,24.0,17.0,30.36,NNW,337,4.0,8.0,74,0.00,,,0.00,,2013-02-20 23:32:00,
2013-02-20 17:42:00,24.0,17.0,30.36,NNW,337,4.0,8.0,74,0.00,,,0.00,,2013-02-20 23:42:00,
2013-02-20 17:52:00,24.0,17.0,30.37,North,11,4.0,7.0,75,0.00,,,0.00,,2013-02-20 23:52:00,
2013-02-20 18:03:00,23.0,17.0,30.37,NNE,17,3.0,8.0,76,0.00,,,0.00,,2013-02-21 00:03:00,
2013-02-20 18:11:00,23.0,17.0,30.37,NNE,17,3.0,8.0,76,0.00,,,0.00,,2013-02-21 00:11:00,
2013-02-20 18:21:00,23.0,17.0,30.37,NNE,20,3.0,8.0,77,0.00,,,0.00,,2013-02-21 00:21:00,
2013-02-20 18:32:00,23.0,17.0,30.38,North,355,2.0,6.0,78,0.00,,,0.00,,2013-02-21 00:32:00,
2013-02-20 18:42:00,23.0,17.0,30.38,North,355,2.0,6.0,78,0.00,,,0.00,,2013-02-21 00:42:00,
2013-02-20 18:52:00,23.0,17.0,30.37,North,5,4.0,6.0,78,0.00,,,0.00,,2013-02-21 00:52:00,
2013-02-20 19:01:00,22.0,17.0,30.37,North,351,1.0,4.0,80,0.00,,,0.00,,2013-02-21 01:01:00,
2013-02-20 19:11:00,22.0,17.0,30.37,North,351,1.0,4.0,80,0.00,,,0.00,,2013-02-21 01:11:00,
2013-02-20 19:21:00,22.0,16.0,30.38,North,355,3.0,5.0,79,0.00,,,0.00,,2013-02-21 01:21:00,
2013-02-20 19:32:00,22.0,16.0,30.38,NNW,331,2.0,5.0,79,0.00,,,0.00,,2013-02-21 01:32:00,
2013-02-20 19:42:00,22.0,16.0,30.38,NNW,331,2.0,5.0,79,0.00,,,0.00,,2013-02-21 01:42:00,
2013-02-20 19:52:00,22.0,17.0,30.37,NNE,15,2.0,5.0,81,0.00,,,0.00,,2013-02-21 01:52:00,
2013-02-20 20:01:00,21.0,16.0,30.37,NNE,14,2.0,4.0,82,0.00,,,0.00,,2013-02-21 02:01:00,
2013-02-20 20:11:00,21.0,16.0,30.37,NNE,14,2.0,4.0,82,0.00,,,0.00,,2013-02-21 02:11:00,
2013-02-20 20:21:00,21.0,17.0,30.37,NNE,15,2.0,4.0,83,0.00,,,0.00,,2013-02-21 02:21:00,
2013-02-20 20:32:00,21.0,17.0,30.37,North,360,2.0,4.0,84,0.00,,,0.00,,2013-02-21 02:32:00,
2013-02-20 20:42:00,21.0,17.0,30.37,North,360,2.0,4.0,84,0.00,,,0.00,,2013-02-21 02:42:00,
2013-02-20 20:52:00,21.0,17.0,30.37,North,360,2.0,4.0,84,0.00,,,0.00,,2013-02-21 02:52:00,
2013-02-20 21:01:00,20.0,16.0,30.37,NNE,22,3.0,5.0,84,0.00,,,0.00,,2013-02-21 03:01:00,
2013-02-20 21:12:00,20.0,16.0,30.37,NNE,22,3.0,5.0,84,0.00,,,0.00,,2013-02-21 03:12:00,
2013-02-20 21:21:00,20.0,15.0,30.37,ESE,120,1.0,6.0,82,0.00,,,0.00,,2013-02-21 03:21:00,
2013-02-20 21:32:00,20.0,15.0,30.37,ESE,120,1.0,6.0,82,0.00,,,0.00,,2013-02-21 03:32:00,
2013-02-20 21:41:00,20.0,15.0,30.37,ESE,120,1.0,6.0,82,0.00,,,0.00,,2013-02-21 03:41:00,
2013-02-20 21:52:00,20.0,15.0,30.37,ENE,69,1.0,3.0,82,0.00,,,0.00,,2013-02-21 03:52:00,
2013-02-20 22:01:00,20.0,15.0,30.38,ENE,64,1.0,2.0,82,0.00,,,0.00,,2013-02-21 04:01:00,
2013-02-20 22:11:00,20.0,15.0,30.38,ENE,64,1.0,2.0,82,0.00,,,0.00,,2013-02-21 04:11:00,
2013-02-20 22:22:00,20.0,15.0,30.38,ENE,61,0.0,3.0,82,0.00,,,0.00,,2013-02-21 04:22:00,
2013-02-20 22:32:00,20.0,16.0,30.39,SE,138,0.0,3.0,83,0.00,,,0.00,,2013-02-21 04:32:00,
2013-02-20 22:42:00,20.0,16.0,30.39,SE,138,0.0,3.0,83,0.00,,,0.00,,2013-02-21 04:42:00,
2013-02-20 22:52:00,19.0,15.0,30.39,SE,138,0.0,2.0,83,0.00,,,0.00,,2013-02-21 04:52:00,
2013-02-20 23:02:00,19.0,15.0,30.39,SE,138,0.0,1.0,84,0.00,,,0.00,,2013-02-21 05:02:00,
2013-02-20 23:12:00,19.0,15.0,30.39,SE,138,0.0,1.0,84,0.00,,,0.00,,2013-02-21 05:12:00,
2013-02-20 23:22:00,19.0,15.0,30.39,SE,138,0.0,1.0,84,0.00,,,0.00,,2013-02-21 05:22:00,
2013-02-20 23:34:00,19.0,15.0,30.39,SE,138,0.0,1.0,84,0.00,,,0.00,,2013-02-21 05:34:00,
2013-02-20 23:44:00,19.0,15.0,30.39,SE,138,0.0,1.0,84,0.00,,,0.00,,2013-02-21 05:44:00,
2013-02-20 23:59:00,19.0,15.0,30.39,SE,138,0.0,0.0,84,0.00,,,0.00,,2013-02-21 05:59:00,